createdAt,value
2023-02-07T00:01:25.971Z,63.32
2023-02-07T00:03:54.265Z,63.39
2023-02-07T00:06:28.835Z,63.13
2023-02-07T00:08:56.508Z,63.21
2023-02-07T00:11:24.104Z,63.53
2023-02-07T00:13:54.510Z,63.49
2023-02-07T00:16:21.930Z,63.28
2023-02-07T00:18:49.117Z,63.45
2023-02-07T00:21:19.472Z,63.21
2023-02-07T00:23:47.203Z,63.06
2023-02-07T00:26:16.225Z,63.51
2023-02-07T00:28:43.175Z,63.04
2023-02-07T00:31:20.760Z,63.22
2023-02-07T00:33:49.191Z,63.39
2023-02-07T00:36:22.682Z,63.32
2023-02-07T00:38:49.716Z,63.18
2023-02-07T00:41:18.521Z,63.20
2023-02-07T00:43:47.147Z,63.36
2023-02-07T00:46:14.236Z,63.35
2023-02-07T00:48:41.041Z,63.30
2023-02-07T00:51:08.134Z,63.35
2023-02-07T00:53:34.937Z,63.33
2023-02-07T00:56:01.869Z,63.40
2023-02-07T00:58:28.676Z,63.17
2023-02-07T01:00:55.487Z,63.43
2023-02-07T01:03:22.373Z,63.59
2023-02-07T01:05:49.162Z,63.66
2023-02-07T01:08:16.675Z,63.84
2023-02-07T01:10:45.472Z,63.68
2023-02-07T01:13:14.052Z,63.65
2023-02-07T01:15:44.305Z,63.28
2023-02-07T01:18:11.672Z,63.74
2023-02-07T01:20:39.050Z,63.47
2023-02-07T01:23:05.951Z,63.61
2023-02-07T01:25:33.457Z,63.49
2023-02-07T01:28:00.284Z,63.53
2023-02-07T01:30:27.228Z,63.70
2023-02-07T01:32:54.005Z,63.25
2023-02-07T01:35:20.846Z,63.80
2023-02-07T01:37:47.625Z,63.72
2023-02-07T01:40:14.468Z,64.08
2023-02-07T01:42:41.387Z,64.17
2023-02-07T01:45:36.262Z,63.94
2023-02-07T01:48:21.027Z,64.00
2023-02-07T01:50:51.645Z,64.00
2023-02-07T01:53:22.725Z,63.95
2023-02-07T01:55:53.889Z,64.15
2023-02-07T01:58:21.385Z,64.12
2023-02-07T02:00:48.749Z,63.92
2023-02-07T02:03:15.533Z,64.33
2023-02-07T02:05:44.073Z,64.20
2023-02-07T02:08:10.876Z,63.97
2023-02-07T02:11:07.472Z,63.84
2023-02-07T02:14:06.771Z,63.86
2023-02-07T02:17:03.690Z,64.08
2023-02-07T02:20:05.704Z,63.81
2023-02-07T02:22:55.872Z,63.65
2023-02-07T02:26:04.005Z,63.87
2023-02-07T02:29:15.245Z,63.88
2023-02-07T02:32:10.624Z,63.98
2023-02-07T02:35:11.877Z,63.94
2023-02-07T02:37:58.342Z,64.14
2023-02-07T02:40:58.201Z,63.99
2023-02-07T02:43:47.324Z,63.87
2023-02-07T02:46:30.143Z,63.97
2023-02-07T02:48:58.405Z,63.94
2023-02-07T02:51:28.761Z,64.19
2023-02-07T02:53:58.252Z,63.81
2023-02-07T02:57:01.739Z,64.15
2023-02-07T03:00:19.027Z,63.97
2023-02-07T03:02:54.544Z,63.82
2023-02-07T03:05:41.592Z,64.01
2023-02-07T03:08:29.495Z,63.87
2023-02-07T03:11:10.847Z,64.19
2023-02-07T03:14:02.849Z,64.00
2023-02-07T03:16:57.548Z,63.51
2023-02-07T03:19:44.104Z,63.96
2023-02-07T03:22:14.828Z,64.59
2023-02-07T03:24:45.410Z,64.77
2023-02-07T03:27:15.880Z,64.79
2023-02-07T03:29:47.366Z,64.38
2023-02-07T03:32:16.732Z,64.23
2023-02-07T03:35:22.195Z,64.42
2023-02-07T03:37:54.531Z,64.04
2023-02-07T03:40:21.988Z,64.06
2023-02-07T03:43:16.614Z,63.99
2023-02-07T03:45:43.673Z,63.77
2023-02-07T03:48:10.462Z,63.83
2023-02-07T03:50:37.363Z,63.78
2023-02-07T03:53:04.440Z,63.57
2023-02-07T03:55:32.710Z,63.66
2023-02-07T03:57:59.695Z,63.72
2023-02-07T04:00:26.534Z,63.72
2023-02-07T04:02:53.484Z,63.48
2023-02-07T04:05:20.459Z,63.50
2023-02-07T04:07:48.046Z,63.12
2023-02-07T04:10:14.817Z,63.31
2023-02-07T04:12:41.583Z,63.07
2023-02-07T04:15:09.777Z,63.32
2023-02-07T04:17:36.928Z,63.27
2023-02-07T04:20:05.736Z,63.14
2023-02-07T04:22:32.978Z,62.92
2023-02-07T04:24:59.777Z,63.21
2023-02-07T04:27:26.649Z,63.27
2023-02-07T04:29:53.476Z,62.95
2023-02-07T04:32:20.332Z,63.25
2023-02-07T04:34:47.120Z,62.80
2023-02-07T04:37:14.317Z,62.90
2023-02-07T04:39:41.101Z,62.87
2023-02-07T04:42:07.866Z,63.14
2023-02-07T04:44:34.965Z,63.09
2023-02-07T04:47:01.755Z,62.78
2023-02-07T04:49:28.512Z,62.64
2023-02-07T04:51:55.281Z,62.61
2023-02-07T04:54:22.608Z,62.68
2023-02-07T04:56:49.385Z,62.91
2023-02-07T04:59:16.172Z,62.74
2023-02-07T05:01:42.955Z,62.54
2023-02-07T05:04:09.743Z,62.53
2023-02-07T05:06:36.576Z,62.80
2023-02-07T05:09:03.382Z,62.95
2023-02-07T05:11:30.216Z,62.44
2023-02-07T05:13:57.010Z,62.65
2023-02-07T05:16:23.784Z,62.59
2023-02-07T05:18:50.588Z,62.59
2023-02-07T05:21:17.363Z,62.69
2023-02-07T05:23:44.132Z,62.36
2023-02-07T05:26:10.880Z,62.91
2023-02-07T05:28:37.671Z,62.46
2023-02-07T05:31:04.641Z,62.80
2023-02-07T05:33:31.452Z,62.45
2023-02-07T05:36:01.703Z,62.72
2023-02-07T05:38:28.794Z,62.93
2023-02-07T05:40:55.605Z,62.93
2023-02-07T05:43:22.455Z,62.55
2023-02-07T05:45:49.598Z,63.02
2023-02-07T05:48:16.414Z,62.74
2023-02-07T05:50:43.173Z,62.35
2023-02-07T05:53:10.728Z,62.34
2023-02-07T05:55:38.148Z,62.45
2023-02-07T05:58:05.171Z,62.66
2023-02-07T06:00:32.156Z,62.32
2023-02-07T06:02:58.955Z,62.41
2023-02-07T06:05:31.531Z,62.56
2023-02-07T06:07:58.417Z,62.17
2023-02-07T06:10:25.193Z,61.90
2023-02-07T06:12:52.037Z,62.27
2023-02-07T06:15:19.015Z,62.29
2023-02-07T06:17:45.802Z,62.20
2023-02-07T06:20:13.021Z,62.45
2023-02-07T06:22:39.829Z,62.16
2023-02-07T06:25:11.568Z,62.39
2023-02-07T06:27:41.833Z,62.43
2023-02-07T06:30:10.988Z,62.19
2023-02-07T06:32:37.773Z,61.96
2023-02-07T06:35:06.975Z,61.83
2023-02-07T06:37:34.089Z,62.23
2023-02-07T06:40:00.943Z,62.39
2023-02-07T06:42:27.743Z,62.15
2023-02-07T06:44:54.545Z,62.35
2023-02-07T06:47:21.360Z,62.80
2023-02-07T06:49:48.596Z,62.73
2023-02-07T06:52:15.857Z,62.43
2023-02-07T06:54:42.682Z,62.17
2023-02-07T06:57:09.556Z,62.47
2023-02-07T06:59:36.323Z,62.54
2023-02-07T07:02:03.698Z,62.31
2023-02-07T07:04:30.983Z,62.50
2023-02-07T07:06:58.056Z,62.68
2023-02-07T07:09:24.845Z,62.42
2023-02-07T07:11:51.649Z,62.38
2023-02-07T07:14:18.467Z,62.70
2023-02-07T07:16:45.327Z,62.76
2023-02-07T07:19:12.202Z,62.74
2023-02-07T07:21:39.176Z,62.98
2023-02-07T07:24:06.310Z,62.76
2023-02-07T07:26:47.991Z,62.47
2023-02-07T07:29:17.005Z,63.23
2023-02-07T07:31:43.898Z,63.71
2023-02-07T07:34:10.737Z,63.70
2023-02-07T07:36:37.536Z,63.51
2023-02-07T07:39:04.902Z,63.29
2023-02-07T07:41:31.727Z,63.62
2023-02-07T07:43:58.513Z,62.89
2023-02-07T07:46:25.350Z,63.01
2023-02-07T07:48:52.709Z,62.74
2023-02-07T07:51:19.479Z,62.62
2023-02-07T07:53:46.302Z,62.67
2023-02-07T07:56:13.068Z,62.00
2023-02-07T07:58:39.828Z,62.16
2023-02-07T08:01:06.638Z,62.31
2023-02-07T08:03:33.509Z,62.31
2023-02-07T08:06:00.512Z,62.57
2023-02-07T08:08:27.292Z,62.58
2023-02-07T08:10:54.085Z,62.69
2023-02-07T08:13:21.424Z,62.33
2023-02-07T08:15:48.206Z,62.39
2023-02-07T08:18:15.000Z,63.00
2023-02-07T08:20:41.852Z,62.67
2023-02-07T08:23:08.610Z,62.97
2023-02-07T08:25:35.379Z,62.26
2023-02-07T08:28:04.427Z,62.94
2023-02-07T08:30:31.860Z,62.82
2023-02-07T08:32:58.676Z,63.28
2023-02-07T08:35:26.448Z,63.19
2023-02-07T08:37:54.070Z,63.13
2023-02-07T08:40:20.870Z,63.22
2023-02-07T08:42:48.032Z,63.85
2023-02-07T08:45:15.975Z,63.74
2023-02-07T08:47:42.942Z,63.68
2023-02-07T08:50:11.017Z,63.54
2023-02-07T08:52:37.999Z,64.20
2023-02-07T08:55:05.631Z,63.89
2023-02-07T08:57:33.040Z,64.02
2023-02-07T09:00:00.172Z,64.08
2023-02-07T09:02:27.475Z,64.41
2023-02-07T09:04:55.691Z,64.73
2023-02-07T09:07:22.481Z,64.62
2023-02-07T09:09:49.383Z,64.52
2023-02-07T09:12:16.173Z,64.77
2023-02-07T09:14:42.993Z,64.61
2023-02-07T09:17:09.788Z,64.54
2023-02-07T09:19:36.751Z,65.00
2023-02-07T09:22:04.871Z,64.77
2023-02-07T09:24:32.445Z,64.92
2023-02-07T09:26:59.367Z,65.29
2023-02-07T09:29:26.199Z,65.10
2023-02-07T09:31:53.144Z,65.47
2023-02-07T09:34:20.045Z,65.06
2023-02-07T09:36:46.964Z,65.60
2023-02-07T09:39:13.796Z,65.72
2023-02-07T09:42:13.771Z,65.60
2023-02-07T09:44:54.155Z,66.04
2023-02-07T09:47:26.359Z,65.59
2023-02-07T09:50:00.124Z,65.40
2023-02-07T09:52:45.176Z,65.36
2023-02-07T09:55:24.895Z,65.10
2023-02-07T09:58:16.451Z,65.20
2023-02-07T10:00:47.795Z,65.26
2023-02-07T10:03:20.162Z,65.49
2023-02-07T10:06:16.946Z,65.54
2023-02-07T10:08:46.547Z,65.70
2023-02-07T10:11:35.301Z,65.34
2023-02-07T10:14:18.330Z,65.71
2023-02-07T10:17:03.816Z,64.95
2023-02-07T10:20:06.499Z,65.03
2023-02-07T10:23:14.504Z,65.19
2023-02-07T10:26:11.757Z,65.31
2023-02-07T10:29:18.207Z,65.35
2023-02-07T10:31:53.318Z,65.43
2023-02-07T10:34:34.263Z,65.36
2023-02-07T10:37:15.445Z,65.18
2023-02-07T10:39:49.032Z,64.97
2023-02-07T10:42:17.308Z,65.15
2023-02-07T10:44:44.238Z,64.68
2023-02-07T10:47:17.051Z,64.68
2023-02-07T10:49:47.934Z,64.59
2023-02-07T10:52:28.707Z,64.61
2023-02-07T10:55:02.582Z,63.88
2023-02-07T10:57:31.112Z,63.79
2023-02-07T11:00:07.069Z,63.69
2023-02-07T11:02:39.570Z,64.00
2023-02-07T11:05:15.404Z,63.14
2023-02-07T11:07:56.751Z,63.28
2023-02-07T11:10:34.128Z,63.02
2023-02-07T11:13:02.910Z,63.14
2023-02-07T11:15:47.598Z,62.76
2023-02-07T11:18:37.318Z,62.78
2023-02-07T11:21:07.604Z,62.95
2023-02-07T11:23:34.681Z,62.42
2023-02-07T11:26:03.573Z,62.64
2023-02-07T11:28:32.550Z,62.38
2023-02-07T11:31:10.593Z,62.01
2023-02-07T11:33:37.668Z,62.21
2023-02-07T11:36:22.056Z,61.71
2023-02-07T11:38:58.666Z,62.70
2023-02-07T11:41:33.054Z,62.11
2023-02-07T11:44:15.575Z,62.09
2023-02-07T11:46:47.814Z,62.01
2023-02-07T11:49:29.316Z,62.03
2023-02-07T11:52:00.292Z,62.07
2023-02-07T11:54:30.006Z,61.34
2023-02-07T11:57:17.447Z,61.47
2023-02-07T12:00:07.879Z,61.17
2023-02-07T12:02:35.906Z,61.34
2023-02-07T12:05:27.076Z,60.83
2023-02-07T12:08:03.194Z,61.04
2023-02-07T12:10:35.458Z,60.50
2023-02-07T12:13:37.444Z,60.90
2023-02-07T12:16:17.958Z,60.60
2023-02-07T12:18:52.516Z,60.79
2023-02-07T12:22:10.209Z,60.81
2023-02-07T12:25:04.884Z,60.42
2023-02-07T12:27:41.127Z,60.67
2023-02-07T12:30:33.047Z,60.29
2023-02-07T12:33:31.589Z,60.46
2023-02-07T12:36:27.691Z,60.34
2023-02-07T12:39:11.634Z,60.22
2023-02-07T12:41:45.639Z,60.09
2023-02-07T12:44:23.771Z,59.81
2023-02-07T12:47:25.255Z,59.77
2023-02-07T12:50:39.316Z,59.44
2023-02-07T12:53:26.068Z,59.54
2023-02-07T12:56:35.160Z,59.15
2023-02-07T12:59:40.366Z,59.61
2023-02-07T13:02:59.181Z,59.79
2023-02-07T13:05:53.484Z,59.58
2023-02-07T13:09:00.831Z,59.56
2023-02-07T13:11:59.184Z,59.33
2023-02-07T13:14:31.593Z,59.12
2023-02-07T13:17:23.193Z,58.72
2023-02-07T13:20:05.652Z,58.69
2023-02-07T13:23:03.102Z,58.11
2023-02-07T13:25:39.825Z,58.36
2023-02-07T13:28:26.427Z,58.10
2023-02-07T13:30:54.366Z,58.02
2023-02-07T13:33:36.729Z,57.71
2023-02-07T13:36:42.959Z,57.89
2023-02-07T13:39:46.986Z,57.88
2023-02-07T13:42:41.494Z,57.97
2023-02-07T13:45:46.417Z,57.78
2023-02-07T13:48:34.163Z,57.54
2023-02-07T13:51:16.005Z,57.63
2023-02-07T13:53:58.848Z,57.42
2023-02-07T13:56:53.311Z,57.25
2023-02-07T13:59:38.499Z,57.02
2023-02-07T14:02:22.021Z,56.90
2023-02-07T14:04:55.014Z,56.75
2023-02-07T14:07:31.136Z,56.66
2023-02-07T14:09:59.107Z,56.92
2023-02-07T14:12:40.703Z,56.21
2023-02-07T14:15:31.218Z,56.11
2023-02-07T14:18:01.074Z,56.42
2023-02-07T14:20:37.441Z,56.17
2023-02-07T14:23:18.438Z,56.15
2023-02-07T14:25:46.781Z,56.06
2023-02-07T14:28:36.025Z,55.96
2023-02-07T14:31:19.266Z,55.86
2023-02-07T14:34:11.390Z,55.91
2023-02-07T14:36:38.389Z,55.70
2023-02-07T14:39:19.169Z,55.78
2023-02-07T14:41:48.321Z,55.61
2023-02-07T14:44:35.179Z,55.51
2023-02-07T14:47:04.040Z,55.33
2023-02-07T14:49:53.183Z,55.69
2023-02-07T14:52:33.361Z,55.52
2023-02-07T14:55:08.722Z,55.73
2023-02-07T14:58:00.441Z,55.35
2023-02-07T15:00:49.603Z,55.75
2023-02-07T15:03:19.448Z,55.69
2023-02-07T15:05:57.585Z,55.38
2023-02-07T15:08:27.551Z,55.60
2023-02-07T15:11:13.096Z,55.54
2023-02-07T15:13:45.506Z,55.15
2023-02-07T15:16:12.267Z,55.68
2023-02-07T15:18:53.904Z,55.36
2023-02-07T15:21:33.900Z,55.20
2023-02-07T15:24:25.749Z,55.19
2023-02-07T15:27:01.453Z,54.97
2023-02-07T15:29:36.737Z,55.10
2023-02-07T15:32:25.448Z,54.94
2023-02-07T15:34:52.301Z,55.04
2023-02-07T15:37:27.686Z,55.31
2023-02-07T15:39:57.645Z,54.80
2023-02-07T15:42:24.742Z,54.82
2023-02-07T15:44:57.541Z,54.74
2023-02-07T15:47:31.990Z,54.73
2023-02-07T15:50:14.136Z,54.50
2023-02-07T15:52:45.047Z,54.88
2023-02-07T15:55:35.736Z,54.54
2023-02-07T15:58:04.739Z,54.73
2023-02-07T16:00:38.933Z,54.32
2023-02-07T16:03:37.827Z,54.52
2023-02-07T16:06:23.384Z,54.63
2023-02-07T16:08:54.551Z,54.00
2023-02-07T16:11:27.392Z,54.12
2023-02-07T16:14:12.714Z,54.45
2023-02-07T16:16:47.141Z,54.36
2023-02-07T16:19:26.357Z,54.05
2023-02-07T16:22:12.009Z,54.04
2023-02-07T16:24:42.607Z,53.78
2023-02-07T16:27:24.516Z,53.80
2023-02-07T16:29:51.694Z,54.48
2023-02-07T16:32:18.449Z,54.21
2023-02-07T16:34:58.871Z,53.97
2023-02-07T16:37:28.204Z,53.97
2023-02-07T16:39:55.135Z,54.55
2023-02-07T16:42:22.005Z,54.57
2023-02-07T16:44:48.951Z,54.36
2023-02-07T16:47:18.057Z,54.84
2023-02-07T16:49:46.140Z,54.41
2023-02-07T16:52:13.031Z,54.65
2023-02-07T16:54:39.973Z,54.74
2023-02-07T16:57:06.944Z,54.76
2023-02-07T16:59:34.265Z,54.52
2023-02-07T17:02:01.227Z,54.40
2023-02-07T17:07:12.360Z,54.36
2023-02-07T17:09:39.206Z,54.72
2023-02-07T17:12:07.257Z,55.18
2023-02-07T17:14:36.295Z,54.75
2023-02-07T17:17:03.245Z,55.24
2023-02-07T17:19:30.018Z,55.06
2023-02-07T17:21:56.977Z,55.26
2023-02-07T17:24:23.921Z,55.29
2023-02-07T17:26:53.823Z,55.02
2023-02-07T17:29:21.556Z,54.94
2023-02-07T17:31:48.878Z,55.25
2023-02-07T17:34:16.037Z,55.53
2023-02-07T17:36:47.829Z,55.17
2023-02-07T17:39:17.487Z,55.85
2023-02-07T17:41:44.373Z,55.50
2023-02-07T17:44:11.180Z,55.54
2023-02-07T17:46:38.194Z,55.54
2023-02-07T17:49:06.694Z,55.84
2023-02-07T17:51:33.509Z,56.02
2023-02-07T17:54:00.402Z,55.46
2023-02-07T17:56:30.327Z,55.49
2023-02-07T18:02:33.226Z,56.12
2023-02-07T18:09:48.773Z,55.88
2023-02-07T18:12:51.268Z,55.89
2023-02-07T18:15:22.658Z,56.73
2023-02-07T18:18:26.036Z,56.48
2023-02-07T18:21:22.501Z,56.06
2023-02-07T18:27:38.475Z,56.70
2023-02-07T18:30:29.133Z,56.91
2023-02-07T18:33:49.716Z,56.77
2023-02-07T18:42:55.898Z,56.90
2023-02-07T18:45:27.327Z,56.60
2023-02-07T18:49:42.964Z,57.05
2023-02-07T19:49:43.146Z,58.65
2023-02-07T19:52:17.231Z,58.55
2023-02-07T20:03:50.630Z,58.71
2023-02-07T20:06:22.437Z,59.17
2023-02-07T20:08:52.564Z,58.92
2023-02-07T20:11:21.533Z,58.88
2023-02-07T20:13:52.676Z,58.94
2023-02-07T20:16:23.700Z,58.85
2023-02-07T20:18:52.020Z,59.33
2023-02-07T20:21:25.158Z,59.09
2023-02-07T20:23:54.512Z,59.21
2023-02-07T20:26:33.035Z,59.64
2023-02-07T20:29:04.759Z,59.03
2023-02-07T20:31:31.778Z,59.25
2023-02-07T20:33:59.246Z,59.33
2023-02-07T20:36:26.677Z,59.12
2023-02-07T20:38:56.534Z,59.49
2023-02-07T20:41:36.022Z,59.42
2023-02-07T20:44:12.432Z,59.69
2023-02-07T20:46:41.116Z,59.89
2023-02-07T20:49:16.565Z,59.63
2023-02-07T20:51:44.604Z,59.58
2023-02-07T20:54:12.684Z,59.94
2023-02-07T20:56:39.559Z,60.01
2023-02-07T20:59:07.291Z,59.67
2023-02-07T21:01:35.441Z,59.82
2023-02-07T21:04:05.515Z,59.85
2023-02-07T21:06:34.079Z,60.06
2023-02-07T21:09:04.098Z,59.96
2023-02-07T21:11:36.678Z,59.92
2023-02-07T21:14:19.903Z,59.70
2023-02-07T21:16:46.725Z,60.31
2023-02-07T21:19:14.670Z,60.42
2023-02-07T21:21:42.787Z,60.06
2023-02-07T21:24:10.081Z,60.21
2023-02-07T21:26:36.977Z,60.07
2023-02-07T21:29:05.453Z,60.21
2023-02-07T21:31:34.989Z,60.05
2023-02-07T21:34:04.354Z,60.21
2023-02-07T21:36:37.845Z,60.25
2023-02-07T21:39:09.186Z,60.30
2023-02-07T21:41:42.091Z,60.25
2023-02-07T21:44:10.371Z,60.19
2023-02-07T21:46:41.579Z,60.10
2023-02-07T21:49:14.559Z,60.49
2023-02-07T21:51:43.077Z,60.47
2023-02-07T21:54:10.351Z,60.53
2023-02-07T21:56:40.907Z,60.28
2023-02-07T21:59:14.769Z,60.66
2023-02-07T22:01:41.886Z,60.72
2023-02-07T22:04:12.961Z,60.67
2023-02-07T22:06:43.007Z,60.72
2023-02-07T22:09:13.129Z,60.75
2023-02-07T22:11:40.538Z,60.69
2023-02-07T22:14:07.379Z,60.49
2023-02-07T22:16:34.882Z,60.61
2023-02-07T22:19:04.700Z,60.79
2023-02-07T22:21:34.827Z,60.34
2023-02-07T22:24:02.722Z,60.71
2023-02-07T22:26:30.506Z,60.78
2023-02-07T22:28:58.929Z,60.57
2023-02-07T22:31:28.769Z,60.51
2023-02-07T22:34:00.895Z,60.63
2023-02-07T22:36:30.885Z,60.25
2023-02-07T22:39:01.289Z,60.58
2023-02-07T22:41:28.672Z,60.47
2023-02-07T22:43:55.673Z,60.14
2023-02-07T22:46:24.469Z,60.60
2023-02-07T22:48:52.583Z,60.46
2023-02-07T22:51:21.930Z,60.50
2023-02-07T22:53:50.748Z,60.63
2023-02-07T22:56:17.626Z,60.50
2023-02-07T22:58:44.912Z,60.53
2023-02-07T23:01:24.145Z,60.73
2023-02-07T23:03:51.713Z,60.24
2023-02-07T23:06:19.318Z,60.62
2023-02-07T23:08:46.719Z,60.97
2023-02-07T23:11:15.426Z,60.64
2023-02-07T23:13:42.919Z,60.77
2023-02-07T23:16:15.646Z,60.55
2023-02-07T23:18:43.040Z,60.72
2023-02-07T23:21:16.606Z,60.67
2023-02-07T23:23:43.882Z,60.66
2023-02-07T23:26:14.245Z,60.72
2023-02-07T23:28:41.546Z,60.51
2023-02-07T23:31:11.597Z,60.71
2023-02-07T23:33:38.633Z,60.67
2023-02-07T23:36:06.426Z,60.62
2023-02-07T23:38:34.275Z,60.51
2023-02-07T23:41:01.340Z,60.79
2023-02-07T23:43:28.156Z,60.52
2023-02-07T23:45:55.388Z,60.70
2023-02-07T23:48:22.326Z,60.55
2023-02-07T23:50:57.587Z,60.76
2023-02-07T23:53:25.346Z,60.33
2023-02-07T23:55:55.317Z,60.66
2023-02-07T23:58:23.858Z,60.91
